createdAt,value
2018-10-17T00:00:19.181Z,13.62
2018-10-17T00:02:46.811Z,13.35
2018-10-17T00:05:14.459Z,12.95
2018-10-17T00:07:41.939Z,13.03
2018-10-17T00:10:10.286Z,15.60
2018-10-17T00:12:38.439Z,14.30
2018-10-17T00:15:06.724Z,14.85
2018-10-17T00:17:34.251Z,13.45
2018-10-17T00:20:01.837Z,13.80
2018-10-17T00:22:29.428Z,13.18
2018-10-17T00:24:56.994Z,13.93
2018-10-17T00:27:24.568Z,15.10
2018-10-17T00:29:52.117Z,13.55
2018-10-17T00:32:19.661Z,12.93
2018-10-17T00:34:47.193Z,14.00
2018-10-17T00:37:14.826Z,13.25
2018-10-17T00:39:42.311Z,14.20
2018-10-17T00:42:10.049Z,13.60
2018-10-17T00:44:37.599Z,14.28
2018-10-17T00:47:05.451Z,13.48
2018-10-17T00:49:32.958Z,12.75
2018-10-17T00:52:00.554Z,13.38
2018-10-17T00:54:28.069Z,15.03
2018-10-17T00:56:55.606Z,14.58
2018-10-17T00:59:23.197Z,14.38
2018-10-17T01:01:50.736Z,14.20
2018-10-17T01:04:18.266Z,14.23
2018-10-17T01:06:45.876Z,15.75
2018-10-17T01:09:14.090Z,13.70
2018-10-17T01:11:41.828Z,14.75
2018-10-17T01:14:09.578Z,14.50
2018-10-17T01:16:37.125Z,14.40
2018-10-17T01:19:05.190Z,15.10
2018-10-17T01:21:33.260Z,16.95
2018-10-17T01:24:00.838Z,16.25
2018-10-17T01:26:28.439Z,17.10
2018-10-17T01:28:56.033Z,15.72
2018-10-17T01:31:23.621Z,15.25
2018-10-17T01:33:51.170Z,15.25
2018-10-17T01:36:18.699Z,15.95
2018-10-17T01:38:46.301Z,14.87
2018-10-17T01:41:14.050Z,16.70
2018-10-17T01:43:41.500Z,14.68
2018-10-17T01:46:09.091Z,18.07
2018-10-17T01:48:36.661Z,17.42
2018-10-17T01:51:04.373Z,17.42
2018-10-17T01:53:31.934Z,17.15
2018-10-17T01:55:59.530Z,15.63
2018-10-17T01:58:27.330Z,16.37
2018-10-17T02:00:54.979Z,15.90
2018-10-17T02:03:22.507Z,14.87
2018-10-17T02:05:50.015Z,15.78
2018-10-17T02:08:17.611Z,15.18
2018-10-17T02:10:45.248Z,15.08
2018-10-17T02:13:12.839Z,14.65
2018-10-17T02:15:40.296Z,14.43
2018-10-17T02:18:07.822Z,15.50
2018-10-17T02:20:35.333Z,14.50
2018-10-17T02:23:03.193Z,14.73
2018-10-17T02:25:30.693Z,15.30
2018-10-17T02:27:58.234Z,14.93
2018-10-17T02:30:25.778Z,14.50
2018-10-17T02:32:53.318Z,16.15
2018-10-17T02:35:20.889Z,14.43
2018-10-17T02:37:48.347Z,15.00
2018-10-17T02:40:16.065Z,16.17
2018-10-17T02:42:43.610Z,14.93
2018-10-17T02:45:12.631Z,15.45
2018-10-17T02:47:40.185Z,15.80
2018-10-17T02:50:09.114Z,15.90
2018-10-17T02:52:37.869Z,14.85
2018-10-17T02:55:05.762Z,16.97
2018-10-17T02:57:33.608Z,15.03
2018-10-17T03:00:01.502Z,16.17
2018-10-17T03:02:29.157Z,16.30
2018-10-17T03:04:56.712Z,15.55
2018-10-17T03:07:24.236Z,15.05
2018-10-17T03:09:51.871Z,16.15
2018-10-17T03:12:19.390Z,15.80
2018-10-17T03:14:47.478Z,15.40
2018-10-17T03:17:15.115Z,15.50
2018-10-17T03:19:42.630Z,15.08
2018-10-17T03:22:10.258Z,15.53
2018-10-17T03:24:37.784Z,15.75
2018-10-17T03:27:05.363Z,16.40
2018-10-17T03:29:32.952Z,14.80
2018-10-17T03:32:00.544Z,16.17
2018-10-17T03:34:28.227Z,16.23
2018-10-17T03:36:55.829Z,15.93
2018-10-17T03:39:23.324Z,15.05
2018-10-17T03:41:50.873Z,16.30
2018-10-17T03:44:18.440Z,16.37
2018-10-17T03:46:45.978Z,16.87
2018-10-17T03:49:13.549Z,15.30
2018-10-17T03:51:41.063Z,15.63
2018-10-17T03:54:08.597Z,16.12
2018-10-17T03:56:36.198Z,17.15
2018-10-17T03:59:04.089Z,16.70
2018-10-17T04:01:31.578Z,17.15
2018-10-17T04:03:59.165Z,16.80
2018-10-17T04:06:26.683Z,16.57
2018-10-17T04:08:54.274Z,17.23
2018-10-17T04:11:21.850Z,17.55
2018-10-17T04:13:49.382Z,16.35
2018-10-17T04:16:17.157Z,16.25
2018-10-17T04:18:44.642Z,17.37
2018-10-17T04:21:12.202Z,16.35
2018-10-17T04:23:39.744Z,17.17
2018-10-17T04:26:07.272Z,16.50
2018-10-17T04:28:34.794Z,16.97
2018-10-17T04:31:02.377Z,17.87
2018-10-17T04:33:30.036Z,17.05
2018-10-17T04:35:57.736Z,16.10
2018-10-17T04:38:25.450Z,17.05
2018-10-17T04:40:53.170Z,16.42
2018-10-17T04:43:20.744Z,16.48
2018-10-17T04:45:48.308Z,16.32
2018-10-17T04:48:15.930Z,15.58
2018-10-17T04:50:43.437Z,16.15
2018-10-17T04:53:11.042Z,15.70
2018-10-17T04:55:38.506Z,15.60
2018-10-17T04:58:06.042Z,16.25
2018-10-17T05:00:33.576Z,16.25
2018-10-17T05:03:01.485Z,15.18
2018-10-17T05:05:29.189Z,16.35
2018-10-17T05:07:56.777Z,26.27
2018-10-17T05:10:24.347Z,20.90
2018-10-17T05:12:51.970Z,18.82
2018-10-17T05:15:19.530Z,16.70
2018-10-17T05:17:47.122Z,14.60
2018-10-17T05:20:14.667Z,15.55
2018-10-17T05:22:42.176Z,15.68
2018-10-17T05:25:09.747Z,16.20
2018-10-17T05:27:37.230Z,16.67
2018-10-17T05:30:05.458Z,14.87
2018-10-17T05:32:33.019Z,15.40
2018-10-17T05:35:00.578Z,16.60
2018-10-17T05:37:28.123Z,16.35
2018-10-17T05:39:55.614Z,15.58
2018-10-17T05:42:23.157Z,15.18
2018-10-17T05:44:50.666Z,15.68
2018-10-17T05:47:18.240Z,16.57
2018-10-17T05:49:45.759Z,16.07
2018-10-17T05:52:13.261Z,16.27
2018-10-17T05:54:40.783Z,16.25
2018-10-17T05:57:08.347Z,16.60
2018-10-17T05:59:35.931Z,15.95
2018-10-17T06:02:07.725Z,17.37
2018-10-17T06:04:41.903Z,16.75
2018-10-17T06:07:09.496Z,15.65
2018-10-17T06:09:37.056Z,15.63
2018-10-17T06:12:04.785Z,17.23
2018-10-17T06:14:32.365Z,16.40
2018-10-17T06:16:59.984Z,16.80
2018-10-17T06:19:27.433Z,16.07
2018-10-17T06:21:54.972Z,16.10
2018-10-17T06:24:22.503Z,14.83
2018-10-17T06:26:50.103Z,16.25
2018-10-17T06:29:17.666Z,17.50
2018-10-17T06:31:45.262Z,17.27
2018-10-17T06:34:12.870Z,16.62
2018-10-17T06:36:40.401Z,16.25
2018-10-17T06:39:09.392Z,17.10
2018-10-17T06:41:36.959Z,16.85
2018-10-17T06:44:04.900Z,16.90
2018-10-17T06:46:32.879Z,15.80
2018-10-17T06:49:00.421Z,18.27
2018-10-17T06:51:28.014Z,17.15
2018-10-17T06:53:55.619Z,15.20
2018-10-17T06:56:23.118Z,18.52
2018-10-17T06:58:50.747Z,17.17
2018-10-17T07:01:18.300Z,16.00
2018-10-17T07:03:45.843Z,17.42
2018-10-17T07:06:13.396Z,17.23
2018-10-17T07:08:41.022Z,17.52
2018-10-17T07:11:08.613Z,18.87
2018-10-17T07:13:36.309Z,21.05
2018-10-17T07:16:04.356Z,20.45
2018-10-17T07:18:31.946Z,19.62
2018-10-17T07:20:59.483Z,20.90
2018-10-17T07:23:27.037Z,26.33
2018-10-17T07:25:54.581Z,23.65
2018-10-17T07:28:22.532Z,22.98
2018-10-17T07:30:50.132Z,21.37
2018-10-17T07:33:17.705Z,22.27
2018-10-17T07:35:45.618Z,23.00
2018-10-17T07:38:13.133Z,24.80
2018-10-17T07:40:40.661Z,23.55
2018-10-17T07:43:08.284Z,22.10
2018-10-17T07:45:35.812Z,22.77
2018-10-17T07:48:03.446Z,21.37
2018-10-17T07:50:31.031Z,21.85
2018-10-17T07:52:58.623Z,22.22
2018-10-17T07:55:26.208Z,20.10
2018-10-17T07:57:53.752Z,21.73
2018-10-17T08:00:21.345Z,19.40
2018-10-17T08:02:48.851Z,20.43
2018-10-17T08:05:16.404Z,20.57
2018-10-17T08:07:43.976Z,20.35
2018-10-17T08:10:11.553Z,19.70
2018-10-17T08:12:40.245Z,20.50
2018-10-17T08:15:08.470Z,18.95
2018-10-17T08:17:36.276Z,19.40
2018-10-17T08:20:04.247Z,21.50
2018-10-17T08:22:31.775Z,22.60
2018-10-17T08:24:59.332Z,21.30
2018-10-17T08:27:26.952Z,22.35
2018-10-17T08:29:54.582Z,23.30
2018-10-17T08:32:22.127Z,23.95
2018-10-17T08:34:49.673Z,22.87
2018-10-17T08:37:17.753Z,23.45
2018-10-17T08:39:44.807Z,25.52
2018-10-17T08:42:12.340Z,23.15
2018-10-17T08:44:39.895Z,24.00
2018-10-17T08:47:07.439Z,22.87
2018-10-17T08:49:34.993Z,24.18
2018-10-17T08:52:02.516Z,24.13
2018-10-17T08:54:30.046Z,23.57
2018-10-17T08:56:57.682Z,24.30
2018-10-17T08:59:25.285Z,22.13
2018-10-17T09:01:52.821Z,23.07
2018-10-17T09:04:20.350Z,22.80
2018-10-17T09:06:47.933Z,22.70
2018-10-17T09:09:15.493Z,23.30
2018-10-17T09:11:43.035Z,22.53
2018-10-17T09:14:11.205Z,23.37
2018-10-17T09:16:39.298Z,23.87
2018-10-17T09:19:07.410Z,22.97
2018-10-17T09:21:35.249Z,23.23
2018-10-17T09:24:02.573Z,21.17
2018-10-17T09:26:30.126Z,22.83
2018-10-17T09:28:57.707Z,23.63
2018-10-17T09:31:25.286Z,24.00
2018-10-17T09:33:52.853Z,26.10
2018-10-17T09:36:20.507Z,24.00
2018-10-17T09:38:47.955Z,23.50
2018-10-17T09:41:15.516Z,23.77
2018-10-17T09:43:43.035Z,22.80
2018-10-17T09:46:10.672Z,24.80
2018-10-17T09:48:38.316Z,21.80
2018-10-17T09:51:05.954Z,22.37
2018-10-17T09:53:33.487Z,23.47
2018-10-17T09:56:01.092Z,19.63
2018-10-17T09:58:28.640Z,20.13
2018-10-17T10:01:01.752Z,18.73
2018-10-17T10:03:29.322Z,19.00
2018-10-17T10:05:56.956Z,19.17
2018-10-17T10:08:24.700Z,17.90
2018-10-17T10:10:52.334Z,17.37
2018-10-17T10:13:19.799Z,17.30
2018-10-17T10:15:47.345Z,16.40
2018-10-17T10:18:14.918Z,17.80
2018-10-17T10:20:42.483Z,17.40
2018-10-17T10:23:10.090Z,17.40
2018-10-17T10:25:37.610Z,19.80
2018-10-17T10:28:05.195Z,18.13
2018-10-17T10:30:32.771Z,17.80
2018-10-17T10:33:00.379Z,17.43
2018-10-17T10:35:28.035Z,18.67
2018-10-17T10:37:55.611Z,17.20
2018-10-17T10:40:23.244Z,19.07
2018-10-17T10:42:50.797Z,19.73
2018-10-17T10:45:18.545Z,18.87
2018-10-17T10:47:45.923Z,17.10
2018-10-17T10:50:13.597Z,19.90
2018-10-17T10:52:41.079Z,16.67
2018-10-17T10:55:08.605Z,16.47
2018-10-17T10:57:36.229Z,18.43
2018-10-17T11:00:03.857Z,18.97
2018-10-17T11:02:31.383Z,17.30
2018-10-17T11:04:59.012Z,15.80
2018-10-17T11:07:26.547Z,16.13
2018-10-17T11:09:54.175Z,15.93
2018-10-17T11:12:21.795Z,16.40
2018-10-17T11:14:49.567Z,16.73
2018-10-17T11:17:17.511Z,15.50
2018-10-17T11:19:45.044Z,16.67
2018-10-17T11:22:12.605Z,17.17
2018-10-17T11:24:40.227Z,18.00
2018-10-17T11:27:07.871Z,16.23
2018-10-17T11:29:35.490Z,16.37
2018-10-17T11:32:03.121Z,17.13
2018-10-17T11:34:30.791Z,15.40
2018-10-17T11:36:58.393Z,15.33
2018-10-17T11:39:25.976Z,16.00
2018-10-17T11:41:53.612Z,15.07
2018-10-17T11:44:21.299Z,13.40
2018-10-17T11:46:48.724Z,14.83
2018-10-17T11:49:16.291Z,14.90
2018-10-17T11:51:43.891Z,14.37
2018-10-17T11:54:11.428Z,16.00
2018-10-17T11:56:39.009Z,13.53
2018-10-17T11:59:06.652Z,14.33
2018-10-17T12:01:34.234Z,16.50
2018-10-17T12:04:02.283Z,14.07
2018-10-17T12:06:29.784Z,13.60
2018-10-17T12:08:57.264Z,13.10
2018-10-17T12:11:24.919Z,14.90
2018-10-17T12:13:52.428Z,13.47
2018-10-17T12:16:19.971Z,13.30
2018-10-17T12:18:47.545Z,13.57
2018-10-17T12:21:15.190Z,14.47
2018-10-17T12:23:42.770Z,13.60
2018-10-17T12:26:10.381Z,14.73
2018-10-17T12:28:38.192Z,12.20
2018-10-17T12:31:05.969Z,14.60
2018-10-17T12:33:33.610Z,16.37
2018-10-17T12:36:01.202Z,11.70
2018-10-17T12:38:28.813Z,12.57
2018-10-17T12:40:56.596Z,13.07
2018-10-17T12:43:24.175Z,15.90
2018-10-17T12:45:51.775Z,12.73
2018-10-17T12:48:19.336Z,14.73
2018-10-17T12:50:46.949Z,15.20
2018-10-17T12:53:14.726Z,13.97
2018-10-17T12:55:42.095Z,15.10
2018-10-17T12:58:09.664Z,13.90
2018-10-17T13:00:37.202Z,13.83
2018-10-17T13:03:05.018Z,12.87
2018-10-17T13:05:32.576Z,13.93
2018-10-17T13:08:00.197Z,15.43
2018-10-17T13:10:27.770Z,15.20
2018-10-17T13:12:55.431Z,13.30
2018-10-17T13:15:23.136Z,14.67
2018-10-17T13:17:50.872Z,14.50
2018-10-17T13:20:18.493Z,13.50
2018-10-17T13:22:46.137Z,13.30
2018-10-17T13:25:13.812Z,13.70
2018-10-17T13:27:41.413Z,12.60
2018-10-17T13:30:09.210Z,13.80
2018-10-17T13:32:36.898Z,12.60
2018-10-17T13:35:05.371Z,11.63
2018-10-17T13:37:32.888Z,12.43
2018-10-17T13:40:00.445Z,11.73
2018-10-17T13:42:28.099Z,11.20
2018-10-17T13:44:55.728Z,11.97
2018-10-17T13:47:23.311Z,13.03
2018-10-17T13:49:50.941Z,12.37
2018-10-17T13:52:18.490Z,13.33
2018-10-17T13:54:46.268Z,12.43
2018-10-17T13:57:13.771Z,11.73
2018-10-17T13:59:41.369Z,12.23
2018-10-17T14:02:08.978Z,11.97
2018-10-17T14:04:36.567Z,11.03
2018-10-17T14:07:04.205Z,11.30
2018-10-17T14:09:31.820Z,10.13
2018-10-17T14:11:59.381Z,11.97
2018-10-17T14:14:26.963Z,11.20
2018-10-17T14:16:54.540Z,9.87
2018-10-17T14:19:22.663Z,11.73
2018-10-17T14:21:50.268Z,12.60
2018-10-17T14:24:17.943Z,13.13
2018-10-17T14:26:45.537Z,12.23
2018-10-17T14:29:13.098Z,12.00
2018-10-17T14:31:40.636Z,12.70
2018-10-17T14:34:08.215Z,10.73
2018-10-17T14:36:35.788Z,11.70
2018-10-17T14:39:06.102Z,11.27
2018-10-17T14:41:33.618Z,10.83
2018-10-17T14:44:01.206Z,12.10
2018-10-17T14:46:28.809Z,10.77
2018-10-17T14:48:56.367Z,11.70
2018-10-17T14:51:23.931Z,10.70
2018-10-17T14:53:51.561Z,10.67
2018-10-17T14:56:19.213Z,11.00
2018-10-17T14:58:46.804Z,11.43
2018-10-17T15:01:14.369Z,10.60
2018-10-17T15:03:41.960Z,9.60
2018-10-17T15:06:09.553Z,10.10
2018-10-17T15:08:37.152Z,10.07
2018-10-17T15:11:04.959Z,9.30
2018-10-17T15:13:32.467Z,10.67
2018-10-17T15:16:00.199Z,9.97
2018-10-17T15:18:27.726Z,9.63
2018-10-17T15:20:55.317Z,9.47
2018-10-17T15:23:22.894Z,9.20
2018-10-17T15:25:50.483Z,9.33
2018-10-17T15:28:18.078Z,9.70
2018-10-17T15:30:45.708Z,9.60
2018-10-17T15:33:13.380Z,10.13
2018-10-17T15:35:40.960Z,10.63
2018-10-17T15:38:08.581Z,11.33
2018-10-17T15:40:40.131Z,10.27
2018-10-17T15:43:07.780Z,9.97
2018-10-17T15:45:35.308Z,9.70
2018-10-17T15:48:02.911Z,10.40
2018-10-17T15:50:30.444Z,11.20
2018-10-17T15:52:58.037Z,11.10
2018-10-17T15:55:25.672Z,11.60
2018-10-17T15:57:53.250Z,10.93
2018-10-17T16:00:20.825Z,11.27
2018-10-17T16:02:48.592Z,10.27
2018-10-17T16:05:16.160Z,10.30
2018-10-17T16:07:43.847Z,10.83
2018-10-17T16:10:11.376Z,10.47
2018-10-17T16:12:39.002Z,10.40
2018-10-17T16:15:07.555Z,10.30
2018-10-17T16:17:35.181Z,10.50
2018-10-17T16:20:03.116Z,11.40
2018-10-17T16:22:31.571Z,10.40
2018-10-17T16:24:59.120Z,12.27
2018-10-17T16:27:26.711Z,11.60
2018-10-17T16:29:54.464Z,11.80
2018-10-17T16:32:22.153Z,11.13
2018-10-17T16:34:49.783Z,10.90
2018-10-17T16:37:17.411Z,12.17
2018-10-17T16:39:44.976Z,11.30
2018-10-17T16:42:12.700Z,10.10
2018-10-17T16:44:40.209Z,10.70
2018-10-17T16:47:07.860Z,12.20
2018-10-17T16:49:35.490Z,12.67
2018-10-17T16:52:03.143Z,10.97
2018-10-17T16:54:30.832Z,12.73
2018-10-17T16:56:58.474Z,12.37
2018-10-17T16:59:26.387Z,11.10
2018-10-17T17:01:54.307Z,11.10
2018-10-17T17:04:21.922Z,11.50
2018-10-17T17:06:49.721Z,10.80
2018-10-17T17:09:17.391Z,11.97
2018-10-17T17:11:44.962Z,12.90
2018-10-17T17:14:12.589Z,11.87
2018-10-17T17:16:40.270Z,13.10
2018-10-17T17:19:07.936Z,12.07
2018-10-17T17:21:35.525Z,11.47
2018-10-17T17:24:03.272Z,12.50
2018-10-17T17:26:30.966Z,11.30
2018-10-17T17:28:58.636Z,13.00
2018-10-17T17:31:26.256Z,13.10
2018-10-17T17:33:53.863Z,12.23
2018-10-17T17:36:21.514Z,11.90
2018-10-17T17:38:49.147Z,12.53
2018-10-17T17:41:16.780Z,11.53
2018-10-17T17:43:44.618Z,11.93
2018-10-17T17:46:12.332Z,11.10
2018-10-17T17:48:39.936Z,11.67
2018-10-17T17:51:07.583Z,10.73
2018-10-17T17:53:35.320Z,13.90
2018-10-17T17:56:03.029Z,13.70
2018-10-17T17:58:30.795Z,12.47
2018-10-17T18:00:58.352Z,12.93
2018-10-17T18:03:25.974Z,13.27
2018-10-17T18:05:53.601Z,12.90
2018-10-17T18:08:21.257Z,12.73
2018-10-17T18:10:48.922Z,13.60
2018-10-17T18:13:16.608Z,13.07
2018-10-17T18:15:45.552Z,12.97
2018-10-17T18:18:13.684Z,12.20
2018-10-17T18:20:41.345Z,14.83
2018-10-17T18:23:08.993Z,15.00
2018-10-17T18:25:36.652Z,13.50
2018-10-17T18:28:04.558Z,13.03
2018-10-17T18:30:32.051Z,14.33
2018-10-17T18:32:59.771Z,15.00
2018-10-17T18:35:27.425Z,16.87
2018-10-17T18:37:55.071Z,14.17
2018-10-17T18:40:22.784Z,13.10
2018-10-17T18:42:50.442Z,14.17
2018-10-17T18:45:18.232Z,14.07
2018-10-17T18:47:46.001Z,13.53
2018-10-17T18:50:13.718Z,13.70
2018-10-17T18:52:41.428Z,13.63
2018-10-17T18:55:09.098Z,14.03
2018-10-17T18:57:36.833Z,13.83
2018-10-17T19:00:06.608Z,13.13
2018-10-17T19:02:34.263Z,14.83
2018-10-17T19:05:01.956Z,16.87
2018-10-17T19:07:29.629Z,15.40
2018-10-17T19:09:57.316Z,14.53
2018-10-17T19:12:25.013Z,14.10
2018-10-17T19:14:52.737Z,16.33
2018-10-17T19:17:20.378Z,16.80
2018-10-17T19:19:48.087Z,17.37
2018-10-17T19:22:15.715Z,17.53
2018-10-17T19:24:43.601Z,17.70
2018-10-17T19:27:11.367Z,17.80
2018-10-17T19:29:39.056Z,16.93
2018-10-17T19:32:06.733Z,18.17
2018-10-17T19:34:34.407Z,19.27
2018-10-17T19:37:02.174Z,17.77
2018-10-17T19:39:29.939Z,18.20
2018-10-17T19:41:57.626Z,17.17
2018-10-17T19:44:25.358Z,16.93
2018-10-17T19:46:53.106Z,17.93
2018-10-17T19:49:20.948Z,19.03
2018-10-17T19:51:48.580Z,15.20
2018-10-17T19:54:16.214Z,15.80
2018-10-17T19:56:44.227Z,16.00
2018-10-17T19:59:11.925Z,13.30
2018-10-17T20:01:39.590Z,16.60
2018-10-17T20:04:07.430Z,16.17
2018-10-17T20:06:35.249Z,16.10
2018-10-17T20:09:04.412Z,13.80
2018-10-17T20:11:32.081Z,14.23
2018-10-17T20:13:59.663Z,14.00
2018-10-17T20:16:27.395Z,14.50
2018-10-17T20:18:55.029Z,14.47
2018-10-17T20:21:22.900Z,15.20
2018-10-17T20:23:50.643Z,15.33
2018-10-17T20:26:18.301Z,14.90
2018-10-17T20:28:46.048Z,15.60
2018-10-17T20:31:13.722Z,15.00
2018-10-17T20:33:41.348Z,15.70
2018-10-17T20:36:09.013Z,17.87
2018-10-17T20:38:36.700Z,17.70
2018-10-17T20:41:04.337Z,19.03
2018-10-17T20:43:31.937Z,20.57
2018-10-17T20:45:59.560Z,20.02
2018-10-17T20:48:27.121Z,20.00
2018-10-17T20:50:54.698Z,18.70
2018-10-17T20:53:22.305Z,18.67
2018-10-17T20:55:49.948Z,19.05
2018-10-17T20:58:17.673Z,17.10
2018-10-17T21:00:45.170Z,17.05
2018-10-17T21:03:12.795Z,17.10
2018-10-17T21:08:14.588Z,17.40
2018-10-17T21:10:42.149Z,17.35
2018-10-17T21:13:09.699Z,18.27
2018-10-17T21:15:37.297Z,17.45
2018-10-17T21:18:05.066Z,18.23
2018-10-17T21:20:32.677Z,16.73
2018-10-17T21:23:00.253Z,16.23
2018-10-17T21:25:27.849Z,17.87
2018-10-17T21:27:55.541Z,18.23
2018-10-17T21:30:23.124Z,17.32
2018-10-17T21:32:50.745Z,16.57
2018-10-17T21:35:18.444Z,17.50
2018-10-17T21:37:45.994Z,15.95
2018-10-17T21:40:13.565Z,16.67
2018-10-17T21:42:41.213Z,16.15
2018-10-17T21:45:08.854Z,17.42
2018-10-17T21:47:36.431Z,14.15
2018-10-17T21:50:04.563Z,17.55
2018-10-17T21:52:32.109Z,15.93
2018-10-17T21:55:00.057Z,15.15
2018-10-17T21:57:27.671Z,16.45
2018-10-17T21:59:55.199Z,15.70
2018-10-17T22:02:22.789Z,15.00
2018-10-17T22:04:50.381Z,15.03
2018-10-17T22:07:17.945Z,16.32
2018-10-17T22:09:45.601Z,15.70
2018-10-17T22:12:13.285Z,15.05
2018-10-17T22:14:40.825Z,16.55
2018-10-17T22:17:08.419Z,15.43
2018-10-17T22:19:37.186Z,16.05
2018-10-17T22:22:05.626Z,15.55
2018-10-17T22:24:33.243Z,14.40
2018-10-17T22:27:00.831Z,16.15
2018-10-17T22:29:28.419Z,16.52
2018-10-17T22:31:56.100Z,15.53
2018-10-17T22:34:23.708Z,16.25
2018-10-17T22:36:51.445Z,16.02
2018-10-17T22:39:19.030Z,16.12
2018-10-17T22:41:46.595Z,17.32
2018-10-17T22:44:14.308Z,16.12
2018-10-17T22:46:41.894Z,15.65
2018-10-17T22:49:10.071Z,16.25
2018-10-17T22:51:38.281Z,16.67
2018-10-17T22:54:06.448Z,16.05
2018-10-17T22:56:34.018Z,15.38
2018-10-17T22:59:01.571Z,15.60
2018-10-17T23:01:29.143Z,16.10
2018-10-17T23:03:56.708Z,16.67
2018-10-17T23:06:24.270Z,17.27
2018-10-17T23:08:51.891Z,18.77
2018-10-17T23:11:19.538Z,17.85
2018-10-17T23:13:47.038Z,17.95
2018-10-17T23:16:14.583Z,18.35
2018-10-17T23:18:42.130Z,15.55
2018-10-17T23:21:09.642Z,16.10
2018-10-17T23:23:37.183Z,18.55
2018-10-17T23:26:05.273Z,15.88
2018-10-17T23:28:32.751Z,16.50
2018-10-17T23:31:00.278Z,17.12
2018-10-17T23:33:27.852Z,17.12
2018-10-17T23:35:55.406Z,14.93
2018-10-17T23:38:23.122Z,16.93
2018-10-17T23:40:50.905Z,17.15
2018-10-17T23:43:18.438Z,16.45
2018-10-17T23:45:45.986Z,16.85
2018-10-17T23:48:13.659Z,16.27
2018-10-17T23:50:41.153Z,17.20
2018-10-17T23:53:09.043Z,15.13
2018-10-17T23:55:36.550Z,15.98
2018-10-17T23:58:04.430Z,15.43
